createdAt,value
2023-04-27T00:01:06.762Z,100.00
2023-04-27T00:03:34.777Z,100.00
2023-04-27T00:06:01.440Z,100.00
2023-04-27T00:08:28.238Z,100.00
2023-04-27T00:10:55.901Z,100.00
2023-04-27T00:13:22.690Z,100.00
2023-04-27T00:15:49.304Z,100.00
2023-04-27T00:18:15.954Z,100.00
2023-04-27T00:20:44.181Z,100.00
2023-04-27T00:23:10.757Z,100.00
2023-04-27T00:25:37.352Z,100.00
2023-04-27T00:28:04.360Z,100.00
2023-04-27T00:30:31.176Z,100.00
2023-04-27T00:32:57.823Z,100.00
2023-04-27T00:35:24.400Z,100.00
2023-04-27T00:37:53.602Z,100.00
2023-04-27T00:40:20.575Z,100.00
2023-04-27T00:42:47.215Z,100.00
2023-04-27T00:45:13.891Z,100.00
2023-04-27T00:47:41.519Z,100.00
2023-04-27T00:50:08.953Z,100.00
2023-04-27T00:52:36.241Z,100.00
2023-04-27T00:55:05.328Z,100.00
2023-04-27T00:57:33.344Z,100.00
2023-04-27T01:00:00.856Z,100.00
2023-04-27T01:02:29.178Z,100.00
2023-04-27T01:04:56.048Z,100.00
2023-04-27T01:07:25.530Z,100.00
2023-04-27T01:09:52.265Z,100.00
2023-04-27T01:12:20.240Z,100.00
2023-04-27T01:14:48.154Z,100.00
2023-04-27T01:17:14.771Z,100.00
2023-04-27T01:19:42.052Z,100.00
2023-04-27T01:22:09.886Z,100.00
2023-04-27T01:24:37.807Z,100.00
2023-04-27T01:27:05.218Z,100.00
2023-04-27T01:29:31.929Z,100.00
2023-04-27T01:31:58.619Z,100.00
2023-04-27T01:34:25.331Z,100.00
2023-04-27T01:36:51.893Z,100.00
2023-04-27T01:39:18.433Z,100.00
2023-04-27T01:41:46.412Z,100.00
2023-04-27T01:44:13.063Z,100.00
2023-04-27T01:46:39.771Z,100.00
2023-04-27T01:49:06.846Z,100.00
2023-04-27T01:51:34.065Z,100.00
2023-04-27T01:54:00.700Z,100.00
2023-04-27T01:56:27.300Z,100.00
2023-04-27T01:58:56.926Z,100.00
2023-04-27T02:01:24.254Z,100.00
2023-04-27T02:03:51.117Z,100.00
2023-04-27T02:06:17.870Z,100.00
2023-04-27T02:08:45.861Z,100.00
2023-04-27T02:11:12.422Z,100.00
2023-04-27T02:13:38.947Z,100.00
2023-04-27T02:16:07.715Z,100.00
2023-04-27T02:18:34.305Z,100.00
2023-04-27T02:21:00.881Z,100.00
2023-04-27T02:23:27.484Z,100.00
2023-04-27T02:25:54.105Z,100.00
2023-04-27T02:28:20.688Z,100.00
2023-04-27T02:30:47.632Z,100.00
2023-04-27T02:33:15.590Z,100.00
2023-04-27T02:35:42.191Z,100.00
2023-04-27T02:38:08.936Z,100.00
2023-04-27T02:40:37.648Z,100.00
2023-04-27T02:43:06.290Z,100.00
2023-04-27T02:45:36.950Z,100.00
2023-04-27T02:48:05.521Z,100.00
2023-04-27T02:50:40.325Z,100.00
2023-04-27T02:53:06.995Z,100.00
2023-04-27T02:55:33.646Z,100.00
2023-04-27T02:58:00.226Z,100.00
2023-04-27T03:00:27.004Z,100.00
2023-04-27T03:02:53.758Z,100.00
2023-04-27T03:05:20.548Z,100.00
2023-04-27T03:07:48.610Z,100.00
2023-04-27T03:10:15.111Z,100.00
2023-04-27T03:12:43.374Z,100.00
2023-04-27T03:15:10.707Z,100.00
2023-04-27T03:17:37.468Z,100.00
2023-04-27T03:20:04.955Z,100.00
2023-04-27T03:22:31.777Z,100.00
2023-04-27T03:24:59.668Z,100.00
2023-04-27T03:27:26.302Z,100.00
2023-04-27T03:29:52.947Z,100.00
2023-04-27T03:32:19.656Z,100.00
2023-04-27T03:34:46.365Z,100.00
2023-04-27T03:37:13.162Z,100.00
2023-04-27T03:39:40.066Z,100.00
2023-04-27T03:42:09.678Z,100.00
2023-04-27T03:44:36.397Z,100.00
2023-04-27T03:47:03.245Z,100.00
2023-04-27T03:49:29.968Z,100.00
2023-04-27T03:51:56.590Z,100.00
2023-04-27T03:54:23.146Z,100.00
2023-04-27T03:56:49.864Z,100.00
2023-04-27T03:59:19.338Z,100.00
2023-04-27T04:01:49.304Z,100.00
2023-04-27T04:04:16.169Z,100.00
2023-04-27T04:06:42.995Z,100.00
2023-04-27T04:09:09.556Z,100.00
2023-04-27T04:11:36.264Z,100.00
2023-04-27T04:14:05.671Z,100.00
2023-04-27T04:16:34.686Z,100.00
2023-04-27T04:19:01.230Z,100.00
2023-04-27T04:21:27.863Z,100.00
2023-04-27T04:23:54.456Z,100.00
2023-04-27T04:26:21.059Z,100.00
2023-04-27T04:28:47.598Z,100.00
2023-04-27T04:31:14.215Z,100.00
2023-04-27T04:33:42.105Z,100.00
2023-04-27T04:36:09.187Z,100.00
2023-04-27T04:38:35.788Z,100.00
2023-04-27T04:41:02.650Z,100.00
2023-04-27T04:43:32.066Z,100.00
2023-04-27T04:46:01.308Z,100.00
2023-04-27T04:48:27.916Z,100.00
2023-04-27T04:50:56.048Z,100.00
2023-04-27T04:53:22.705Z,100.00
2023-04-27T04:55:49.228Z,100.00
2023-04-27T04:58:15.870Z,100.00
2023-04-27T05:00:42.433Z,100.00
2023-04-27T05:03:09.093Z,100.00
2023-04-27T05:05:35.850Z,100.00
2023-04-27T05:08:04.183Z,100.00
2023-04-27T05:10:30.723Z,100.00
2023-04-27T05:12:57.514Z,100.00
2023-04-27T05:15:24.125Z,100.00
2023-04-27T05:17:50.774Z,100.00
2023-04-27T05:20:17.592Z,100.00
2023-04-27T05:22:44.246Z,100.00
2023-04-27T05:25:12.444Z,100.00
2023-04-27T05:27:39.024Z,100.00
2023-04-27T05:30:06.730Z,100.00
2023-04-27T05:32:33.373Z,100.00
2023-04-27T05:35:00.005Z,100.00
2023-04-27T05:37:26.663Z,100.00
2023-04-27T05:39:53.304Z,100.00
2023-04-27T05:42:21.269Z,100.00
2023-04-27T05:44:47.879Z,100.00
2023-04-27T05:47:14.520Z,100.00
2023-04-27T05:49:41.071Z,100.00
2023-04-27T05:52:07.682Z,100.00
2023-04-27T05:54:34.255Z,100.00
2023-04-27T05:57:00.907Z,100.00
2023-04-27T05:59:28.873Z,100.00
2023-04-27T06:01:55.605Z,100.00
2023-04-27T06:04:22.400Z,100.00
2023-04-27T06:06:49.158Z,100.00
2023-04-27T06:09:15.791Z,100.00
2023-04-27T06:11:42.540Z,100.00
2023-04-27T06:14:09.212Z,100.00
2023-04-27T06:16:37.249Z,100.00
2023-04-27T06:19:03.983Z,100.00
2023-04-27T06:21:32.358Z,100.00
2023-04-27T06:23:59.023Z,100.00
2023-04-27T06:26:25.576Z,100.00
2023-04-27T06:28:52.374Z,100.00
2023-04-27T06:31:19.098Z,100.00
2023-04-27T06:33:47.077Z,100.00
2023-04-27T06:36:13.702Z,100.00
2023-04-27T06:38:40.322Z,100.00
2023-04-27T06:41:06.894Z,100.00
2023-04-27T06:43:33.541Z,100.00
2023-04-27T06:46:00.493Z,100.00
2023-04-27T06:48:27.113Z,100.00
2023-04-27T06:50:55.390Z,100.00
2023-04-27T06:53:22.065Z,100.00
2023-04-27T06:55:48.825Z,100.00
2023-04-27T06:58:15.452Z,100.00
2023-04-27T07:00:42.166Z,100.00
2023-04-27T07:03:08.969Z,100.00
2023-04-27T07:05:35.754Z,100.00
2023-04-27T07:08:07.167Z,100.00
2023-04-27T07:10:35.318Z,100.00
2023-04-27T07:13:01.923Z,100.00
2023-04-27T07:15:28.602Z,100.00
2023-04-27T07:17:55.179Z,100.00
2023-04-27T07:20:21.908Z,100.00
2023-04-27T07:22:48.517Z,100.00
2023-04-27T07:25:17.650Z,100.00
2023-04-27T07:27:44.326Z,100.00
2023-04-27T07:30:11.603Z,100.00
2023-04-27T07:32:39.497Z,100.00
2023-04-27T07:35:06.840Z,100.00
2023-04-27T07:37:33.500Z,100.00
2023-04-27T07:40:00.310Z,100.00
2023-04-27T07:42:28.246Z,100.00
2023-04-27T07:44:56.084Z,100.00
2023-04-27T07:47:22.661Z,100.00
2023-04-27T07:49:49.219Z,100.00
2023-04-27T07:52:15.849Z,100.00
2023-04-27T07:54:42.410Z,100.00
2023-04-27T07:57:09.411Z,100.00
2023-04-27T07:59:37.952Z,100.00
2023-04-27T08:02:18.281Z,100.00
2023-04-27T08:04:45.929Z,100.00
2023-04-27T08:07:12.973Z,100.00
2023-04-27T08:09:39.847Z,100.00
2023-04-27T08:12:06.978Z,100.00
2023-04-27T08:14:34.232Z,100.00
2023-04-27T08:17:02.588Z,100.00
2023-04-27T08:19:29.539Z,100.00
2023-04-27T08:21:56.137Z,100.00
2023-04-27T08:24:23.006Z,100.00
2023-04-27T08:26:50.805Z,100.00
2023-04-27T08:29:27.229Z,100.00
2023-04-27T08:31:56.879Z,79.16
2023-04-27T08:34:25.184Z,58.62
2023-04-27T08:36:51.755Z,48.69
2023-04-27T08:39:18.570Z,43.13
2023-04-27T08:41:45.306Z,39.84
2023-04-27T08:44:12.443Z,39.63
2023-04-27T08:46:39.622Z,37.35
2023-04-27T08:49:06.309Z,35.58
2023-04-27T08:51:34.577Z,34.46
2023-04-27T08:54:01.242Z,34.43
2023-04-27T08:56:29.288Z,34.12
2023-04-27T08:58:57.067Z,31.75
2023-04-27T09:01:24.860Z,30.62
2023-04-27T09:03:56.681Z,31.31
2023-04-27T09:06:30.332Z,32.44
2023-04-27T09:08:59.291Z,30.75
2023-04-27T09:11:30.520Z,32.26
2023-04-27T09:13:59.149Z,32.45
2023-04-27T09:16:27.116Z,29.46
2023-04-27T09:18:54.468Z,29.93
2023-04-27T09:21:24.856Z,30.62
2023-04-27T09:23:51.737Z,30.50
2023-04-27T09:26:24.122Z,30.13
2023-04-27T09:28:52.077Z,32.62
2023-04-27T09:31:19.031Z,30.51
2023-04-27T09:33:46.001Z,29.35
2023-04-27T09:36:13.613Z,27.95
2023-04-27T09:38:40.296Z,26.94
2023-04-27T09:41:08.692Z,28.36
2023-04-27T09:43:37.259Z,27.07
2023-04-27T09:46:04.364Z,27.90
2023-04-27T09:48:31.334Z,28.58
2023-04-27T09:50:57.970Z,28.06
2023-04-27T09:53:29.684Z,27.20
2023-04-27T09:56:11.120Z,31.30
2023-04-27T09:59:01.598Z,33.13
2023-04-27T10:01:37.393Z,32.68
2023-04-27T10:04:25.199Z,32.37
2023-04-27T10:06:59.055Z,30.62
2023-04-27T10:09:26.817Z,29.90
2023-04-27T10:11:54.893Z,28.20
2023-04-27T10:14:24.069Z,26.08
2023-04-27T10:16:52.527Z,25.93
2023-04-27T10:19:19.937Z,26.28
2023-04-27T10:21:54.377Z,26.13
2023-04-27T10:24:31.750Z,25.44
2023-04-27T10:27:01.697Z,25.38
2023-04-27T10:29:37.043Z,24.54
2023-04-27T10:32:07.064Z,26.55
2023-04-27T10:34:35.188Z,26.65
2023-04-27T10:37:05.725Z,27.54
2023-04-27T10:39:47.025Z,26.76
2023-04-27T10:42:26.220Z,26.93
2023-04-27T10:44:57.522Z,26.97
2023-04-27T10:47:24.503Z,25.65
2023-04-27T10:49:52.942Z,27.03
2023-04-27T10:52:21.770Z,27.72
2023-04-27T10:54:48.628Z,25.86
2023-04-27T10:57:15.294Z,26.89
2023-04-27T10:59:49.504Z,26.56
2023-04-27T11:02:17.732Z,26.53
2023-04-27T11:04:44.442Z,26.99
2023-04-27T11:07:11.187Z,26.79
2023-04-27T11:09:39.389Z,25.78
2023-04-27T11:12:07.448Z,26.59
2023-04-27T11:14:34.853Z,26.73
2023-04-27T11:17:01.452Z,26.86
2023-04-27T11:19:29.521Z,28.21
2023-04-27T11:22:03.183Z,27.42
2023-04-27T11:24:29.818Z,26.60
2023-04-27T11:26:56.478Z,25.92
2023-04-27T11:29:23.099Z,23.87
2023-04-27T11:31:51.391Z,25.03
2023-04-27T11:34:20.061Z,25.06
2023-04-27T11:37:07.104Z,25.42
2023-04-27T11:39:41.828Z,24.89
2023-04-27T11:42:15.529Z,27.65
2023-04-27T11:44:42.240Z,25.25
2023-04-27T11:47:09.068Z,25.78
2023-04-27T11:49:35.995Z,25.49
2023-04-27T11:52:04.624Z,24.00
2023-04-27T11:54:31.166Z,24.74
2023-04-27T11:57:04.977Z,24.04
2023-04-27T11:59:31.712Z,22.49
2023-04-27T12:01:58.335Z,23.02
2023-04-27T12:04:25.280Z,23.33
2023-04-27T12:06:51.998Z,22.66
2023-04-27T12:09:19.916Z,23.15
2023-04-27T12:11:46.606Z,21.93
2023-04-27T12:14:13.366Z,21.54
2023-04-27T12:16:40.191Z,21.30
2023-04-27T12:19:06.827Z,22.07
2023-04-27T12:21:33.538Z,22.44
2023-04-27T12:24:00.174Z,20.14
2023-04-27T12:26:28.116Z,21.63
2023-04-27T12:28:54.859Z,20.11
2023-04-27T12:31:21.741Z,21.41
2023-04-27T12:33:48.369Z,20.94
2023-04-27T12:36:14.959Z,20.27
2023-04-27T12:38:41.559Z,20.72
2023-04-27T12:41:08.278Z,20.40
2023-04-27T12:43:36.319Z,21.26
2023-04-27T12:46:03.226Z,21.22
2023-04-27T12:48:29.989Z,21.67
2023-04-27T12:50:56.968Z,21.05
2023-04-27T12:53:23.524Z,21.93
2023-04-27T12:55:50.181Z,19.82
2023-04-27T12:58:16.877Z,19.69
2023-04-27T13:00:44.955Z,19.44
2023-04-27T13:03:11.939Z,20.26
2023-04-27T13:05:38.541Z,18.80
2023-04-27T13:08:05.244Z,19.12
2023-04-27T13:10:32.455Z,17.32
2023-04-27T13:12:59.159Z,18.59
2023-04-27T13:15:25.737Z,17.71
2023-04-27T13:17:53.687Z,18.21
2023-04-27T13:20:20.440Z,19.23
2023-04-27T13:22:46.982Z,19.58
2023-04-27T13:25:13.742Z,18.69
2023-04-27T13:27:40.308Z,18.37
2023-04-27T13:30:08.346Z,19.32
2023-04-27T13:32:35.125Z,18.81
2023-04-27T13:35:03.098Z,20.42
2023-04-27T13:37:29.720Z,20.45
2023-04-27T13:40:01.257Z,20.87
2023-04-27T13:42:29.065Z,21.94
2023-04-27T13:44:55.785Z,21.05
2023-04-27T13:47:22.802Z,21.70
2023-04-27T13:49:49.333Z,21.67
2023-04-27T13:52:17.371Z,20.51
2023-04-27T13:54:43.988Z,20.88
2023-04-27T13:57:10.543Z,21.25
2023-04-27T13:59:37.177Z,22.13
2023-04-27T14:02:03.799Z,21.92
2023-04-27T14:04:30.450Z,21.69
2023-04-27T14:06:57.076Z,23.75
2023-04-27T14:09:25.155Z,22.85
2023-04-27T14:11:56.989Z,23.28
2023-04-27T14:14:24.384Z,24.23
2023-04-27T14:16:51.140Z,24.31
2023-04-27T14:19:17.849Z,26.05
2023-04-27T14:21:44.398Z,25.39
2023-04-27T14:24:10.963Z,25.05
2023-04-27T14:26:38.973Z,25.85
2023-04-27T14:29:05.535Z,26.35
2023-04-27T14:31:32.264Z,27.06
2023-04-27T14:33:58.894Z,27.20
2023-04-27T14:36:25.480Z,27.19
2023-04-27T14:38:52.054Z,28.71
2023-04-27T14:41:18.681Z,28.17
2023-04-27T14:43:46.614Z,28.37
2023-04-27T14:48:46.568Z,27.99
2023-04-27T14:51:13.370Z,26.45
2023-04-27T14:53:40.068Z,28.64
2023-04-27T14:56:07.389Z,28.57
2023-04-27T14:58:34.448Z,27.47
2023-04-27T15:01:02.688Z,28.41
2023-04-27T15:03:29.773Z,28.05
2023-04-27T15:05:56.555Z,29.92
2023-04-27T15:08:23.121Z,29.41
2023-04-27T15:10:49.974Z,29.14
2023-04-27T15:13:16.658Z,28.28
2023-04-27T15:15:43.310Z,28.71
2023-04-27T15:18:11.420Z,29.30
2023-04-27T15:20:38.100Z,30.35
2023-04-27T15:23:04.747Z,28.65
2023-04-27T15:25:31.333Z,29.91
2023-04-27T15:27:57.895Z,30.88
2023-04-27T15:30:24.474Z,30.52
2023-04-27T15:32:51.095Z,29.80
2023-04-27T15:35:19.232Z,30.84
2023-04-27T15:37:45.809Z,30.27
2023-04-27T15:40:12.688Z,30.21
2023-04-27T15:42:39.218Z,31.55
2023-04-27T15:45:09.286Z,30.54
2023-04-27T15:47:36.648Z,31.11
2023-04-27T15:50:03.820Z,33.53
2023-04-27T15:52:31.934Z,31.97
2023-04-27T15:54:58.503Z,31.89
2023-04-27T15:57:25.269Z,32.36
2023-04-27T15:59:51.872Z,33.47
2023-04-27T16:02:18.657Z,33.72
2023-04-27T16:04:45.378Z,33.51
2023-04-27T16:07:12.014Z,33.07
2023-04-27T16:09:40.180Z,33.15
2023-04-27T16:12:07.158Z,34.71
2023-04-27T16:14:33.671Z,33.76
2023-04-27T16:17:02.803Z,34.70
2023-04-27T16:19:29.489Z,35.24
2023-04-27T16:21:56.073Z,35.25
2023-04-27T16:24:22.690Z,34.85
2023-04-27T16:26:50.632Z,35.94
2023-04-27T16:29:17.274Z,37.21
2023-04-27T16:31:43.946Z,37.35
2023-04-27T16:34:10.686Z,37.17
2023-04-27T16:36:37.438Z,36.53
2023-04-27T16:39:04.109Z,35.74
2023-04-27T16:41:30.721Z,37.36
2023-04-27T16:43:58.722Z,35.68
2023-04-27T16:46:25.415Z,37.09
2023-04-27T16:48:52.055Z,36.98
2023-04-27T16:51:18.675Z,36.65
2023-04-27T16:53:45.399Z,37.15
2023-04-27T16:56:11.936Z,39.46
2023-04-27T16:58:38.583Z,38.41
2023-04-27T17:01:06.557Z,39.19
2023-04-27T17:03:33.270Z,39.36
2023-04-27T17:05:59.902Z,38.47
2023-04-27T17:08:26.509Z,39.35
2023-04-27T17:10:53.069Z,39.39
2023-04-27T17:13:19.683Z,42.40
2023-04-27T17:15:46.365Z,45.66
2023-04-27T17:18:14.355Z,41.47
2023-04-27T17:20:42.205Z,42.88
2023-04-27T17:23:08.989Z,42.25
2023-04-27T17:25:35.594Z,41.35
2023-04-27T17:28:02.225Z,42.75
2023-04-27T17:30:28.840Z,43.12
2023-04-27T17:32:55.550Z,42.09
2023-04-27T17:35:23.870Z,43.59
2023-04-27T17:37:51.483Z,46.13
2023-04-27T17:40:18.186Z,44.70
2023-04-27T17:42:44.954Z,46.63
2023-04-27T17:45:11.736Z,47.43
2023-04-27T17:47:38.384Z,50.87
2023-04-27T17:50:05.821Z,49.89
2023-04-27T17:52:33.791Z,52.18
2023-04-27T17:55:00.400Z,50.06
2023-04-27T17:57:26.959Z,50.37
2023-04-27T17:59:53.855Z,50.42
2023-04-27T18:02:20.579Z,50.31
2023-04-27T18:04:47.259Z,52.42
2023-04-27T18:07:13.886Z,55.68
2023-04-27T18:09:41.825Z,63.14
2023-04-27T18:12:08.415Z,64.90
2023-04-27T18:14:34.971Z,66.56
2023-04-27T18:17:01.584Z,63.89
2023-04-27T18:19:28.203Z,57.02
2023-04-27T18:21:54.887Z,63.04
2023-04-27T18:24:21.503Z,58.94
2023-04-27T18:26:49.496Z,55.60
2023-04-27T18:29:16.195Z,66.04
2023-04-27T18:31:42.880Z,67.56
2023-04-27T18:34:09.605Z,68.96
2023-04-27T18:36:36.205Z,69.40
2023-04-27T18:39:02.888Z,68.71
2023-04-27T18:41:29.460Z,68.07
2023-04-27T18:44:03.809Z,68.60
2023-04-27T18:46:30.468Z,72.28
2023-04-27T18:48:57.024Z,68.05
2023-04-27T18:51:23.758Z,68.91
2023-04-27T18:53:50.334Z,65.93
2023-04-27T18:56:16.872Z,72.46
2023-04-27T18:58:43.442Z,68.35
2023-04-27T19:01:18.334Z,70.57
2023-04-27T19:03:45.022Z,67.53
2023-04-27T19:06:13.220Z,74.95
2023-04-27T19:08:39.808Z,72.75
2023-04-27T19:11:06.455Z,73.61
2023-04-27T19:13:33.016Z,72.91
2023-04-27T19:15:59.578Z,78.73
2023-04-27T19:18:27.592Z,78.49
2023-04-27T19:20:54.204Z,85.22
2023-04-27T19:23:20.772Z,78.49
2023-04-27T19:25:47.495Z,85.62
2023-04-27T19:28:15.971Z,82.81
2023-04-27T19:30:42.608Z,84.46
2023-04-27T19:33:09.245Z,79.90
2023-04-27T19:35:37.265Z,77.80
2023-04-27T19:38:04.106Z,81.19
2023-04-27T19:40:30.724Z,86.96
2023-04-27T19:42:57.393Z,82.63
2023-04-27T19:45:24.131Z,83.41
2023-04-27T19:47:50.763Z,88.86
2023-04-27T19:50:17.808Z,89.28
2023-04-27T19:52:45.832Z,89.88
2023-04-27T19:55:12.823Z,93.01
2023-04-27T19:57:39.470Z,92.32
2023-04-27T20:00:07.228Z,94.36
2023-04-27T20:02:39.835Z,91.03
2023-04-27T20:05:07.005Z,96.65
2023-04-27T20:07:33.939Z,92.06
2023-04-27T20:10:01.899Z,95.43
2023-04-27T20:12:47.527Z,98.29
2023-04-27T20:15:15.133Z,92.83
2023-04-27T20:17:41.984Z,92.08
2023-04-27T20:20:09.745Z,96.55
2023-04-27T20:22:36.519Z,93.54
2023-04-27T20:25:05.202Z,94.12
2023-04-27T20:27:32.273Z,93.15
2023-04-27T20:29:58.891Z,94.33
2023-04-27T20:32:25.409Z,90.88
2023-04-27T20:34:52.157Z,98.41
2023-04-27T20:37:18.765Z,95.37
2023-04-27T20:39:45.315Z,97.74
2023-04-27T20:42:13.400Z,96.85
2023-04-27T20:44:39.972Z,94.15
2023-04-27T20:47:06.608Z,99.22
2023-04-27T20:49:35.400Z,98.96
2023-04-27T20:52:02.644Z,100.00
2023-04-27T20:54:29.724Z,97.74
2023-04-27T20:56:56.367Z,100.00
2023-04-27T20:59:24.413Z,100.00
2023-04-27T21:01:50.973Z,100.00
2023-04-27T21:04:17.781Z,100.00
2023-04-27T21:06:44.588Z,100.00
2023-04-27T21:09:11.239Z,100.00
2023-04-27T21:11:37.807Z,100.00
2023-04-27T21:14:04.356Z,100.00
2023-04-27T21:16:32.349Z,100.00
2023-04-27T21:18:59.025Z,100.00
2023-04-27T21:21:25.669Z,100.00
2023-04-27T21:24:04.057Z,100.00
2023-04-27T21:26:33.756Z,100.00
2023-04-27T21:29:00.386Z,100.00
2023-04-27T21:31:27.058Z,100.00
2023-04-27T21:33:55.145Z,100.00
2023-04-27T21:36:21.800Z,100.00
2023-04-27T21:38:48.340Z,100.00
2023-04-27T21:41:14.988Z,100.00
2023-04-27T21:43:41.800Z,100.00
2023-04-27T21:46:08.511Z,100.00
2023-04-27T21:48:35.176Z,100.00
2023-04-27T21:51:03.329Z,100.00
2023-04-27T21:53:30.437Z,100.00
2023-04-27T21:55:57.209Z,100.00
2023-04-27T21:58:23.949Z,100.00
2023-04-27T22:00:50.618Z,100.00
2023-04-27T22:03:17.424Z,100.00
2023-04-27T22:05:44.193Z,100.00
2023-04-27T22:08:12.129Z,100.00
2023-04-27T22:10:38.790Z,100.00
2023-04-27T22:13:17.814Z,100.00
2023-04-27T22:15:45.408Z,100.00
2023-04-27T22:18:12.111Z,100.00
2023-04-27T22:20:38.901Z,100.00
2023-04-27T22:23:05.553Z,100.00
2023-04-27T22:25:34.283Z,100.00
2023-04-27T22:28:00.966Z,100.00
2023-04-27T22:30:27.730Z,100.00
2023-04-27T22:32:55.451Z,100.00
2023-04-27T22:35:27.121Z,100.00
2023-04-27T22:37:54.799Z,100.00
2023-04-27T22:40:21.511Z,100.00
2023-04-27T22:42:49.584Z,100.00
2023-04-27T22:45:16.406Z,100.00
2023-04-27T22:47:43.254Z,100.00
2023-04-27T22:50:10.925Z,100.00
2023-04-27T22:52:37.561Z,100.00
2023-04-27T22:55:04.860Z,100.00
2023-04-27T22:57:31.412Z,100.00
2023-04-27T22:59:59.381Z,100.00
2023-04-27T23:02:26.237Z,100.00
2023-04-27T23:04:52.953Z,100.00
2023-04-27T23:07:19.567Z,100.00
2023-04-27T23:09:46.103Z,100.00
2023-04-27T23:12:12.704Z,100.00
2023-04-27T23:14:39.299Z,100.00
2023-04-27T23:17:07.377Z,100.00
2023-04-27T23:19:34.071Z,100.00
2023-04-27T23:22:01.010Z,100.00
2023-04-27T23:24:27.591Z,100.00
2023-04-27T23:26:54.281Z,100.00
2023-04-27T23:29:20.899Z,100.00
2023-04-27T23:31:47.467Z,100.00
2023-04-27T23:34:15.641Z,100.00
2023-04-27T23:36:42.438Z,100.00
2023-04-27T23:39:09.067Z,100.00
2023-04-27T23:41:35.674Z,100.00
2023-04-27T23:44:02.277Z,100.00
2023-04-27T23:46:35.331Z,100.00
2023-04-27T23:49:15.116Z,100.00
2023-04-27T23:51:51.686Z,100.00
2023-04-27T23:54:31.089Z,100.00
2023-04-27T23:57:04.631Z,100.00
2023-04-27T23:59:44.109Z,100.00
